Denver, Colorado
Traffic Map
Current Weather Conditions
Denver, Colorado
Overcast
Overcast
38°
Feels Like: 33°
Wind Chill: 33° Ceiling: 7000
Heat Index: 38° Visibility: 10mi
Dew Point: 26° Wind: 6mph
Humidity: 64% Direction: 50° (NE)
Pressure: 29.91in Gusts: 0mph
Raw Report DataKBKF 172258Z 05005KT 10SM BKN070 OVC100 03/M03 A2991 RMK AO2A SLP137 T00321031
Traffic Incident Summary
Active as of:
Severity:
Category:
InformationThere was an issue retrieving the traffic information for this location. Please try a different location or try again shortly.
Advertisements
Track Severe Weather on mobile